Time;durP1;ratioP1;P1;durP2;ratioP2;P2;SDS_P1;SDS_P2;PMS_P1;PMS_P2;Temp;Humidity;BMP_temperature;BMP_pressure;BME280_temperature;BME280_humidity;BME280_pressure;Samples;Min_cycle;Max_cycle;Signal;HPM_P1;HPM_P2
2022/01/08 00:00:00;;;;;;;;;0.00;0.00;;;;;9.47;58.17;100905.72;2104481;27;47156;-69
2022/01/08 00:01:01;;;;;;;;;0.00;0.00;;;;;9.48;58.05;100904.81;2104277;27;46926;-69
2022/01/08 00:02:03;;;;;;;;;0.00;0.00;;;;;9.47;57.92;100911.03;2115307;27;47233;-69
2022/01/08 00:03:04;;;;;;;;;0.00;0.00;;;;;9.46;58.14;100909.28;2113522;27;46863;-69
2022/01/08 00:04:05;;;;;;;;;0.33;0.33;;;;;9.46;58.13;100908.41;2113060;27;47937;-68
2022/01/08 00:05:06;;;;;;;;;0.00;0.00;;;;;9.44;58.08;100908.41;2122114;27;46671;-68
2022/01/08 00:06:07;;;;;;;;;0.00;0.00;;;;;9.44;57.99;100911.06;2120531;27;48064;-70
2022/01/08 00:07:08;;;;;;;;;0.00;0.00;;;;;9.42;57.93;100908.44;2112472;27;48405;-70
2022/01/08 00:08:08;;;;;;;;;0.00;0.00;;;;;9.42;58.15;100915.53;2112400;27;48163;-67
2022/01/08 00:09:09;;;;;;;;;2.00;1.00;;;;;9.41;57.90;100916.41;2117421;27;48018;-68
2022/01/08 00:10:09;;;;;;;;;0.00;0.00;;;;;9.40;58.01;100920.84;2122404;27;47257;-68
2022/01/08 00:11:14;;;;;;;;;0.33;0.33;;;;;9.40;57.86;100931.44;2118198;27;47616;-68
2022/01/08 00:12:14;;;;;;;;;0.00;0.00;;;;;9.38;58.55;100922.59;2119754;27;47185;-69
2022/01/08 00:13:15;;;;;;;;;0.00;0.00;;;;;9.38;58.02;100934.97;2128556;27;47850;-68
2022/01/08 00:14:16;;;;;;;;;0.00;0.00;;;;;9.37;57.92;100933.22;2125978;27;46854;-68
2022/01/08 00:15:17;;;;;;;;;0.00;0.00;;;;;9.36;57.83;100934.13;2112804;27;45402;-69
2022/01/08 00:16:18;;;;;;;;;0.00;0.00;;;;;9.34;57.71;100939.44;2112899;27;47721;-69
2022/01/08 00:17:22;;;;;;;;;0.00;0.00;;;;;9.33;58.01;100936.81;2125223;27;45605;-70
2022/01/08 00:18:23;;;;;;;;;1.00;0.00;;;;;9.33;57.95;100940.34;2122151;27;45577;-68
2022/01/08 00:19:24;;;;;;;;;0.00;0.00;;;;;9.32;57.76;100948.31;2121990;27;45829;-68
2022/01/08 00:20:27;;;;;;;;;0.00;0.00;;;;;9.30;57.78;100951.00;2121995;27;48442;-68
2022/01/08 00:21:28;;;;;;;;;0.00;0.00;;;;;9.30;57.84;100944.81;2112442;27;47424;-68
2022/01/08 00:22:28;;;;;;;;;0.00;0.00;;;;;9.29;57.81;100948.38;2117281;27;46788;-69
2022/01/08 00:23:30;;;;;;;;;0.00;0.00;;;;;9.28;57.78;100947.50;2112377;27;47400;-69
2022/01/08 00:24:30;;;;;;;;;0.00;0.00;;;;;9.26;58.03;100943.97;2104813;27;45866;-69
2022/01/08 00:25:31;;;;;;;;;0.00;0.00;;;;;9.26;57.85;100941.31;2112598;27;47247;-68
2022/01/08 00:26:31;;;;;;;;;0.00;0.00;;;;;9.25;57.87;100946.63;2112448;27;45831;-69
2022/01/08 00:27:32;;;;;;;;;0.00;0.00;;;;;9.24;57.85;100939.59;2117316;27;46453;-69
2022/01/08 00:28:32;;;;;;;;;0.00;0.00;;;;;9.23;57.90;100943.13;2122499;27;47699;-69
2022/01/08 00:29:33;;;;;;;;;0.00;0.00;;;;;9.23;57.61;100951.06;2118428;27;46950;-70
2022/01/08 00:30:33;;;;;;;;;1.00;1.00;;;;;9.22;57.90;100946.66;2096054;28;48422;-69
2022/01/08 00:31:34;;;;;;;;;1.00;0.00;;;;;9.20;58.25;100945.81;2099306;27;47577;-69
2022/01/08 00:32:34;;;;;;;;;0.00;0.00;;;;;9.20;58.02;100954.63;2112605;27;46000;-69
2022/01/08 00:33:38;;;;;;;;;0.67;0.67;;;;;9.20;58.36;100956.41;2122539;27;45772;-70
2022/01/08 00:34:38;;;;;;;;;0.00;0.00;;;;;9.19;58.02;100958.19;2121807;27;48181;-69
2022/01/08 00:35:39;;;;;;;;;0.00;0.00;;;;;9.18;58.10;100968.81;2112909;27;47400;-69
2022/01/08 00:36:39;;;;;;;;;0.00;0.00;;;;;9.17;57.93;100956.47;2112727;27;45769;-69
2022/01/08 00:37:40;;;;;;;;;0.00;0.00;;;;;9.16;58.00;100952.94;2116133;27;47292;-69
2022/01/08 00:38:41;;;;;;;;;0.00;0.00;;;;;9.16;58.21;100955.59;2112652;27;48092;-69
2022/01/08 00:39:41;;;;;;;;;0.00;0.00;;;;;9.16;58.03;100946.75;2116770;27;45781;-69
2022/01/08 00:40:42;;;;;;;;;0.00;0.00;;;;;9.16;58.09;100957.34;2121238;27;47294;-69
2022/01/08 00:41:43;;;;;;;;;0.00;0.00;;;;;9.13;57.72;100959.13;2113435;27;45753;-67
2022/01/08 00:42:43;;;;;;;;;0.00;0.00;;;;;9.12;58.16;100951.19;2114599;27;45758;-68
2022/01/08 00:43:44;;;;;;;;;0.00;0.00;;;;;9.11;58.07;100960.03;2130357;27;46374;-68
2022/01/08 00:44:44;;;;;;;;;0.00;0.00;;;;;9.10;58.04;100964.47;2121793;27;45897;-69
2022/01/08 00:45:45;;;;;;;;;0.00;0.00;;;;;9.09;58.15;100975.06;2120751;27;47975;-69
2022/01/08 00:46:45;;;;;;;;;1.00;0.00;;;;;9.09;58.17;100968.00;2115280;27;48075;-68
2022/01/08 00:47:46;;;;;;;;;0.00;0.00;;;;;9.08;58.11;100975.97;2123057;27;48421;-68
2022/01/08 00:48:46;;;;;;;;;0.00;0.00;;;;;9.08;58.12;100973.31;2121536;27;47621;-67
2022/01/08 00:49:47;;;;;;;;;0.00;0.00;;;;;9.07;57.88;100975.09;2122059;27;47399;-68
2022/01/08 00:50:48;;;;;;;;;0.00;0.00;;;;;9.06;58.03;100976.00;2121990;27;48382;-69
2022/01/08 00:51:49;;;;;;;;;1.75;0.00;;;;;9.06;58.00;100977.75;2123006;27;48263;-68
2022/01/08 00:52:49;;;;;;;;;0.00;0.00;;;;;9.04;58.02;100990.13;2121133;27;47119;-69
2022/01/08 00:53:50;;;;;;;;;1.00;1.00;;;;;9.02;58.09;100990.16;2128675;27;47375;-68
2022/01/08 00:54:50;;;;;;;;;0.00;0.00;;;;;9.03;58.20;100991.03;2121684;27;46258;-69
2022/01/08 00:55:51;;;;;;;;;0.00;0.00;;;;;9.01;58.14;100996.31;2123673;27;46438;-69
2022/01/08 00:56:52;;;;;;;;;0.00;0.00;;;;;9.00;58.07;101004.28;2122684;27;47597;-68
2022/01/08 00:57:52;;;;;;;;;0.00;0.00;;;;;9.00;58.05;101004.28;2126556;27;48445;-68
2022/01/08 00:58:53;;;;;;;;;1.00;1.00;;;;;8.99;58.11;101006.06;2123264;27;47934;-68
2022/01/08 00:59:53;;;;;;;;;0.00;0.00;;;;;8.98;58.27;101006.06;2121369;27;46451;-68
2022/01/08 01:00:54;;;;;;;;;0.00;0.00;;;;;8.98;58.09;101006.06;2105400;27;48012;-68
2022/01/08 01:01:54;;;;;;;;;0.00;0.00;;;;;8.99;58.22;101010.47;2104921;27;47519;-67
2022/01/08 01:02:55;;;;;;;;;1.33;1.33;;;;;8.97;58.32;101005.19;2116409;27;46501;-68
2022/01/08 01:03:55;;;;;;;;;1.00;1.00;;;;;8.98;58.18;101020.19;2115559;27;47067;-69
2022/01/08 01:04:56;;;;;;;;;0.00;0.00;;;;;8.97;58.32;101018.44;2112416;27;48733;-70
2022/01/08 01:05:56;;;;;;;;;0.00;0.00;;;;;8.96;58.42;101016.69;2121222;27;47292;-69
2022/01/08 01:06:57;;;;;;;;;0.00;0.00;;;;;8.96;58.48;101013.16;2113569;27;46864;-69
2022/01/08 01:07:57;;;;;;;;;0.00;0.00;;;;;8.94;58.16;101015.81;2116173;27;46636;-69
2022/01/08 01:08:58;;;;;;;;;0.00;0.00;;;;;8.95;58.38;101027.28;2110410;27;45327;-69
2022/01/08 01:09:58;;;;;;;;;0.67;0.67;;;;;8.95;58.46;101020.22;2097318;27;45732;-68
2022/01/08 01:10:59;;;;;;;;;0.00;0.00;;;;;8.93;58.39;101016.72;2104044;27;46215;-68
2022/01/08 01:16:06;;;;;;;;;0.00;0.00;;;;;8.91;58.42;101010.56;2015576;25;46052;-69
2022/01/08 01:17:07;;;;;;;;;1.00;1.00;;;;;8.92;58.64;101009.66;2100898;27;48670;-69
2022/01/08 01:18:09;;;;;;;;;0.00;0.00;;;;;8.92;58.65;101008.81;2103217;27;47351;-69
2022/01/08 01:19:09;;;;;;;;;0.25;0.25;;;;;8.91;58.54;101013.22;2102490;27;47980;-69
2022/01/08 01:20:12;;;;;;;;;0.00;0.00;;;;;8.93;58.65;101018.50;2095641;28;47361;-69
2022/01/08 01:21:12;;;;;;;;;0.00;0.00;;;;;8.91;58.55;101010.56;2094887;28;48144;-70
2022/01/08 01:22:16;;;;;;;;;0.67;0.67;;;;;8.91;58.55;101018.50;2100633;27;48409;-68
2022/01/08 01:23:24;;;;;;;;;0.00;0.00;;;;;8.90;58.69;101011.47;2104548;27;47651;-69
2022/01/08 01:24:26;;;;;;;;;0.25;0.25;;;;;8.89;58.60;101009.69;2104229;27;47458;-69
2022/01/08 01:25:37;;;;;;;;;0.00;0.00;;;;;8.91;58.83;101013.22;2104349;27;47755;-70
2022/01/08 01:26:44;;;;;;;;;1.00;1.00;;;;;8.90;58.77;101010.59;2094988;27;46101;-68
2022/01/08 01:30:06;;;;;;;;;1.00;1.00;;;;;8.88;58.84;101018.50;2094912;28;45991;-69
2022/01/08 01:47:33;;;;;;;;;3.00;1.00;;;;;8.83;58.41;101009.75;2100954;27;45486;-69
2022/01/08 01:48:34;;;;;;;;;1.75;1.75;;;;;8.82;58.63;101008.88;2101057;27;45857;-68
2022/01/08 01:49:38;;;;;;;;;0.00;0.00;;;;;8.82;58.61;101005.34;2087103;28;45934;-68
2022/01/08 01:50:38;;;;;;;;;1.50;0.75;;;;;8.82;58.72;101016.81;2088114;27;45868;-68
2022/01/08 01:51:39;;;;;;;;;1.00;1.00;;;;;8.81;58.52;101004.47;2103585;27;45686;-69
2022/01/08 01:52:39;;;;;;;;;1.00;1.00;;;;;8.80;58.74;101007.16;2089418;28;47204;-69
2022/01/08 01:53:40;;;;;;;;;1.00;1.00;;;;;8.80;58.49;101008.03;2095327;27;46069;-69
2022/01/08 01:54:41;;;;;;;;;0.00;0.00;;;;;8.80;58.51;101010.66;2104620;27;48191;-69
2022/01/08 01:55:42;;;;;;;;;1.75;0.50;;;;;8.80;58.62;101012.44;2095684;28;46080;-68
2022/01/08 01:56:43;;;;;;;;;0.25;0.25;;;;;8.79;58.65;101010.69;2095264;27;46780;-69
2022/01/08 01:57:44;;;;;;;;;2.00;0.00;;;;;8.78;58.49;101025.69;2099196;27;47904;-69
2022/01/08 01:58:45;;;;;;;;;1.00;1.00;;;;;8.77;58.62;101018.66;2104349;27;45931;-69
2022/01/08 01:59:45;;;;;;;;;1.00;1.00;;;;;8.78;58.38;101023.03;2100285;27;46735;-69
2022/01/08 02:00:49;;;;;;;;;0.33;0.00;;;;;8.77;58.25;101018.66;2106147;27;48266;-67
2022/01/08 02:01:49;;;;;;;;;0.00;0.00;;;;;8.78;58.63;101022.16;2104762;27;45857;-68
2022/01/08 02:02:50;;;;;;;;;1.00;1.00;;;;;8.79;58.39;101021.28;2092879;28;45720;-69
2022/01/08 02:03:50;;;;;;;;;2.00;1.00;;;;;8.79;58.50;101021.28;2089226;28;46373;-69
2022/01/08 02:04:51;;;;;;;;;2.00;2.00;;;;;8.79;58.35;101026.56;2096730;28;47081;-68
2022/01/08 02:05:51;;;;;;;;;0.00;0.00;;;;;8.78;58.46;101027.47;2096706;28;47626;-69
2022/01/08 02:06:52;;;;;;;;;0.67;0.67;;;;;8.77;58.38;101020.41;2096599;27;46604;-69
2022/01/08 02:07:57;;;;;;;;;1.25;1.25;;;;;8.77;58.49;101016.00;2099778;27;47297;-69
2022/01/08 02:08:57;;;;;;;;;0.00;0.00;;;;;8.78;58.30;101023.03;2104615;27;45893;-68
2022/01/08 02:09:58;;;;;;;;;2.00;1.00;;;;;8.78;58.38;101011.59;2106011;27;45952;-68
2022/01/08 02:10:58;;;;;;;;;1.33;1.33;;;;;8.78;58.28;101016.88;2105941;27;47352;-68
2022/01/08 02:12:04;;;;;;;;;0.33;0.33;;;;;8.78;58.53;101011.59;2104072;27;46548;-68
2022/01/08 02:13:05;;;;;;;;;1.25;1.25;;;;;8.79;58.50;101010.69;2092944;27;47671;-68
2022/01/08 02:14:05;;;;;;;;;0.00;0.00;;;;;8.78;58.35;101008.94;2096361;28;47283;-69
2022/01/08 02:15:06;;;;;;;;;2.00;2.00;;;;;8.77;58.08;101009.84;2105497;27;46649;-68
2022/01/08 02:16:16;;;;;;;;;1.25;1.25;;;;;8.77;58.21;101012.47;2105751;27;47950;-68
2022/01/08 02:17:17;;;;;;;;;1.75;1.75;;;;;8.75;58.28;101011.59;2103834;27;46113;-68
2022/01/08 02:18:18;;;;;;;;;1.00;1.00;;;;;8.77;58.44;101017.78;2105218;27;46190;-69
2022/01/08 02:19:18;;;;;;;;;1.00;1.00;;;;;8.76;58.35;101018.63;2105390;27;48558;-69
2022/01/08 02:20:19;;;;;;;;;1.00;1.00;;;;;8.76;58.34;101021.28;2105803;27;46161;-69
2022/01/08 02:21:19;;;;;;;;;1.00;1.00;;;;;8.76;58.33;101021.28;2103568;27;47122;-69
2022/01/08 02:22:20;;;;;;;;;1.33;1.00;;;;;8.76;58.49;101023.94;2100385;27;47305;-69
2022/01/08 02:23:22;;;;;;;;;1.33;1.00;;;;;8.77;58.28;101029.22;2104023;27;48383;-69
2022/01/08 02:24:24;;;;;;;;;2.50;1.00;;;;;8.78;58.36;101032.75;2101308;27;47769;-68
2022/01/08 02:25:24;;;;;;;;;1.00;1.00;;;;;8.78;58.46;101032.75;2105090;27;47617;-69
2022/01/08 02:26:25;;;;;;;;;1.00;1.00;;;;;8.77;58.56;101031.00;2105756;27;47183;-69
2022/01/08 02:27:25;;;;;;;;;1.00;1.00;;;;;8.77;58.47;101029.22;2096072;27;45938;-69
2022/01/08 02:28:26;;;;;;;;;1.00;1.00;;;;;8.77;58.25;101034.53;2096614;28;47283;-69
2022/01/08 02:29:26;;;;;;;;;1.00;0.00;;;;;8.77;58.28;101031.88;2098584;27;47304;-68
2022/01/08 02:30:27;;;;;;;;;2.00;1.00;;;;;8.77;58.27;101028.34;2088495;28;47130;-68
2022/01/08 02:31:27;;;;;;;;;1.00;1.00;;;;;8.76;58.33;101032.75;2095246;27;46267;-68
2022/01/08 02:32:30;;;;;;;;;1.00;1.00;;;;;8.75;58.24;101031.00;2103037;27;45431;-68
2022/01/08 02:33:32;;;;;;;;;1.00;1.00;;;;;8.76;58.58;101035.38;2096365;28;47290;-68
2022/01/08 02:34:33;;;;;;;;;1.00;1.00;;;;;8.75;58.47;101028.34;2096457;27;46435;-69
2022/01/08 02:35:34;;;;;;;;;2.00;1.00;;;;;8.75;58.48;101030.09;2105426;27;46605;-69
2022/01/08 02:36:35;;;;;;;;;0.00;0.00;;;;;8.74;58.42;101031.00;2096878;28;45771;-69
2022/01/08 02:37:35;;;;;;;;;1.00;1.00;;;;;8.77;58.53;101031.00;2086459;28;48400;-69
2022/01/08 02:38:36;;;;;;;;;1.00;1.00;;;;;8.76;58.39;101029.22;2088686;28;46443;-69
2022/01/08 02:39:42;;;;;;;;;1.00;1.00;;;;;8.75;58.17;101022.16;2104395;27;48325;-68
2022/01/08 02:40:51;;;;;;;;;1.75;1.75;;;;;8.74;58.21;101021.28;2104909;27;48441;-68
2022/01/08 02:41:56;;;;;;;;;1.25;0.50;;;;;8.75;58.50;101028.34;2103248;27;47397;-69
2022/01/08 02:43:03;;;;;;;;;1.80;1.80;;;;;8.76;58.38;101030.09;2098534;27;46900;-68
2022/01/08 02:44:06;;;;;;;;;1.80;1.00;;;;;8.76;58.50;101032.75;2101591;27;45946;-68
2022/01/08 02:45:08;;;;;;;;;1.00;1.00;;;;;8.75;58.21;101028.34;2105343;27;46071;-70
2022/01/08 02:46:08;;;;;;;;;1.80;1.80;;;;;8.75;58.29;101031.00;2088335;28;47843;-70
2022/01/08 02:47:12;;;;;;;;;0.33;0.33;;;;;8.75;58.58;101030.09;2083790;28;47545;-68
2022/01/08 02:48:13;;;;;;;;;1.75;1.75;;;;;8.75;58.14;101032.75;2088703;28;47532;-68
2022/01/08 02:49:13;;;;;;;;;2.67;1.00;;;;;8.76;58.20;101032.75;2096078;27;48591;-68
2022/01/08 02:50:15;;;;;;;;;1.00;1.00;;;;;8.76;58.23;101024.81;2104964;27;45721;-68
2022/01/08 02:51:16;;;;;;;;;1.50;0.00;;;;;8.77;58.29;101023.94;2105471;27;46578;-69
2022/01/08 02:52:16;;;;;;;;;2.00;2.00;;;;;8.76;58.21;101018.63;2102431;27;45576;-69
2022/01/08 02:53:17;;;;;;;;;1.00;1.00;;;;;8.76;58.11;101016.88;2100403;27;45537;-69
2022/01/08 02:54:17;;;;;;;;;1.00;1.00;;;;;8.76;58.18;101016.88;2096490;28;47225;-69
2022/01/08 02:55:20;;;;;;;;;0.00;0.00;;;;;8.76;58.10;101018.63;2096442;27;45855;-69
2022/01/08 02:56:21;;;;;;;;;0.00;0.00;;;;;8.76;58.22;101019.50;2096691;28;46183;-68
2022/01/08 02:57:21;;;;;;;;;0.00;0.00;;;;;8.77;58.20;101020.41;2095910;27;47176;-68
2022/01/08 02:58:25;;;;;;;;;1.00;1.00;;;;;8.76;58.14;101027.44;2105497;27;48320;-68
2022/01/08 02:59:27;;;;;;;;;0.50;0.50;;;;;8.77;58.47;101025.72;2104770;27;47547;-68
2022/01/08 03:00:27;;;;;;;;;1.00;1.00;;;;;8.76;58.12;101038.03;2105054;27;46337;-68
2022/01/08 03:01:28;;;;;;;;;0.75;0.75;;;;;8.76;57.98;101047.75;2104591;27;47077;-69
2022/01/08 03:02:28;;;;;;;;;0.00;0.00;;;;;8.76;57.99;101048.63;2100838;27;47918;-68
2022/01/08 03:03:29;;;;;;;;;0.67;0.67;;;;;8.77;58.04;101057.47;2103917;27;45913;-69
2022/01/08 03:04:29;;;;;;;;;1.75;1.25;;;;;8.77;57.99;101054.81;2105508;27;47283;-69
2022/01/08 03:05:30;;;;;;;;;1.33;0.00;;;;;8.77;57.72;101042.47;2105433;27;48330;-68
2022/01/08 03:06:31;;;;;;;;;1.00;1.00;;;;;8.76;57.83;101037.16;2105702;27;47148;-69
2022/01/08 03:07:31;;;;;;;;;1.50;1.00;;;;;8.76;57.71;101043.31;2100241;27;47202;-68
2022/01/08 03:08:31;;;;;;;;;1.50;0.75;;;;;8.75;57.84;101036.28;2104305;27;47968;-68
2022/01/08 03:09:37;;;;;;;;;1.00;1.00;;;;;8.76;57.85;101050.38;2105065;27;47921;-68
2022/01/08 03:10:37;;;;;;;;;1.00;1.00;;;;;8.75;57.88;101052.16;2096426;28;47734;-69
2022/01/08 03:11:38;;;;;;;;;1.00;1.00;;;;;8.76;58.19;101053.03;2094761;28;47454;-68
2022/01/08 03:12:41;;;;;;;;;1.00;1.00;;;;;8.75;58.30;101054.81;2091423;27;48165;-69
2022/01/08 03:13:42;;;;;;;;;0.75;0.75;;;;;8.75;57.88;101049.50;2086977;28;47992;-69
2022/01/08 03:14:42;;;;;;;;;2.33;2.00;;;;;8.77;58.20;101052.16;2103985;27;47125;-70
2022/01/08 03:15:43;;;;;;;;;0.00;0.00;;;;;8.76;58.04;101045.09;2105228;27;48445;-69
2022/01/08 03:16:43;;;;;;;;;1.00;1.00;;;;;8.77;58.01;101041.59;2104494;27;46474;-69
2022/01/08 03:17:44;;;;;;;;;1.00;1.00;;;;;8.76;57.95;101031.88;2099252;27;46332;-69
2022/01/08 03:18:46;;;;;;;;;0.00;0.00;;;;;8.75;57.87;101033.63;2105270;27;47355;-68
2022/01/08 03:19:50;;;;;;;;;0.75;0.75;;;;;8.75;57.82;101030.09;2096098;28;48705;-67
2022/01/08 03:21:01;;;;;;;;;0.00;0.00;;;;;8.75;58.04;101030.09;2088445;28;47846;-68
2022/01/08 03:22:03;;;;;;;;;0.00;0.00;;;;;8.75;57.75;101030.09;2095372;27;47765;-68
2022/01/08 03:23:11;;;;;;;;;0.00;0.00;;;;;8.74;57.79;101021.28;2100620;27;46551;-68
2022/01/08 03:24:24;;;;;;;;;0.00;0.00;;;;;8.74;58.06;101025.72;2105218;27;47203;-68
2022/01/08 03:25:25;;;;;;;;;0.25;0.25;;;;;8.76;57.81;101026.56;2105113;27;48086;-68
2022/01/08 03:26:27;;;;;;;;;0.00;0.00;;;;;8.76;57.93;101027.44;2105111;27;45266;-69
2022/01/08 03:27:28;;;;;;;;;0.75;0.75;;;;;8.76;57.88;101023.94;2101900;27;46797;-68
2022/01/08 03:28:28;;;;;;;;;0.00;0.00;;;;;8.76;57.85;101029.22;2096110;27;48014;-68
2022/01/08 03:29:29;;;;;;;;;1.00;1.00;;;;;8.73;57.81;101016.03;2091482;27;47036;-68
2022/01/08 03:30:29;;;;;;;;;1.33;0.00;;;;;8.75;57.92;101023.06;2105424;27;46484;-69
2022/01/08 03:31:30;;;;;;;;;1.00;1.00;;;;;8.74;57.66;101015.13;2096060;28;45601;-69
2022/01/08 03:32:30;;;;;;;;;0.00;0.00;;;;;8.74;57.87;101015.13;2095837;27;47493;-69
2022/01/08 03:33:30;;;;;;;;;1.00;1.00;;;;;8.74;57.63;101004.53;2104885;27;46172;-67
2022/01/08 03:34:31;;;;;;;;;0.00;0.00;;;;;8.73;57.81;101008.09;2102226;27;47573;-68
2022/01/08 03:35:33;;;;;;;;;0.33;0.33;;;;;8.74;57.69;101015.13;2105008;27;45913;-68
2022/01/08 03:36:34;;;;;;;;;0.75;0.00;;;;;8.74;57.49;101009.84;2105372;27;48294;-69
2022/01/08 03:37:35;;;;;;;;;2.25;0.00;;;;;8.70;57.61;101009.00;2102155;27;47931;-71
2022/01/08 03:38:36;;;;;;;;;0.00;0.00;;;;;8.72;57.78;101016.91;2105150;27;47574;-69
2022/01/08 03:39:36;;;;;;;;;0.00;0.00;;;;;8.71;57.74;101015.16;2103641;27;45779;-68
2022/01/08 03:40:36;;;;;;;;;1.00;0.00;;;;;8.70;57.57;101016.94;2105096;27;46273;-68
2022/01/08 03:41:37;;;;;;;;;1.67;0.00;;;;;8.70;57.71;101016.06;2095679;27;47558;-69
2022/01/08 03:42:37;;;;;;;;;0.00;0.00;;;;;8.69;57.56;101019.59;2094609;27;47443;-69
2022/01/08 03:43:38;;;;;;;;;3.00;0.00;;;;;8.70;57.64;101019.59;2104312;27;47489;-68
2022/01/08 03:44:38;;;;;;;;;0.00;0.00;;;;;8.68;57.89;101018.72;2095935;27;48458;-69
2022/01/08 03:45:39;;;;;;;;;0.67;0.00;;;;;8.69;57.67;101035.47;2095722;27;45472;-69
2022/01/08 03:46:40;;;;;;;;;1.00;1.00;;;;;8.68;57.54;101029.31;2104829;27;47030;-69
2022/01/08 03:48:05;;;;;;;;;0.00;0.00;;;;;8.68;57.78;101025.78;2103538;27;48504;-69
2022/01/08 03:50:12;;;;;;;;;0.00;0.00;;;;;8.67;57.62;101038.13;2104752;27;47678;-69
2022/01/08 03:51:14;;;;;;;;;1.00;1.00;;;;;8.67;57.64;101046.06;2104926;27;47571;-69
2022/01/08 03:52:15;;;;;;;;;0.00;0.00;;;;;8.66;57.66;101032.88;2102520;27;46860;-68
2022/01/08 03:53:15;;;;;;;;;0.00;0.00;;;;;8.67;57.62;101039.91;2101378;27;48385;-68
2022/01/08 03:54:16;;;;;;;;;1.00;1.00;;;;;8.66;57.57;101046.09;2105271;27;48521;-67
2022/01/08 03:55:16;;;;;;;;;0.00;0.00;;;;;8.65;57.62;101039.94;2095798;28;47260;-68
2022/01/08 03:56:17;;;;;;;;;2.00;1.00;;;;;8.64;57.78;101040.81;2096249;28;47899;-68
2022/01/08 03:57:17;;;;;;;;;0.00;0.00;;;;;8.65;57.48;101041.69;2101757;27;47360;-68
2022/01/08 03:58:18;;;;;;;;;0.00;0.00;;;;;8.65;57.81;101033.75;2101836;27;46311;-68
2022/01/08 03:59:19;;;;;;;;;0.00;0.00;;;;;8.66;57.57;101024.94;2095694;28;45862;-67
2022/01/08 04:00:19;;;;;;;;;0.00;0.00;;;;;8.66;57.85;101022.28;2096010;27;48909;-67
2022/01/08 04:01:20;;;;;;;;;0.00;0.00;;;;;8.65;57.83;101021.41;2095650;28;46891;-69
2022/01/08 04:02:20;;;;;;;;;0.33;0.33;;;;;8.65;57.85;101021.41;2092418;27;45688;-68
2022/01/08 04:03:21;;;;;;;;;1.00;1.00;;;;;8.65;57.83;101029.34;2102067;27;46925;-69
2022/01/08 04:04:22;;;;;;;;;0.75;0.75;;;;;8.66;57.76;101024.94;2095820;28;48312;-68
2022/01/08 04:05:22;;;;;;;;;3.00;1.25;;;;;8.65;57.85;101025.81;2095869;27;48490;-69
2022/01/08 04:06:22;;;;;;;;;1.33;0.00;;;;;8.65;57.85;101033.75;2104908;27;45305;-68
2022/01/08 04:07:23;;;;;;;;;0.00;0.00;;;;;8.64;57.93;101019.66;2095405;27;46219;-68
2022/01/08 04:08:24;;;;;;;;;1.00;1.00;;;;;8.63;57.91;101023.16;2095865;28;45993;-68
2022/01/08 04:09:24;;;;;;;;;2.00;1.00;;;;;8.64;58.03;101024.94;2104771;27;45734;-68
2022/01/08 04:10:24;;;;;;;;;1.00;1.00;;;;;8.63;58.18;101017.88;2105200;27;46325;-68
2022/01/08 04:11:26;;;;;;;;;0.67;0.67;;;;;8.64;58.04;101016.09;2105010;27;48613;-69
2022/01/08 04:13:56;;;;;;;;;0.00;0.00;;;;;8.63;58.32;101035.50;2088569;27;48366;-70
2022/01/08 04:15:06;;;;;;;;;1.00;1.00;;;;;8.62;58.13;101039.06;2098959;27;47982;-69
2022/01/08 04:16:14;;;;;;;;;0.75;0.75;;;;;8.62;58.01;101039.94;2104199;27;48242;-67
2022/01/08 04:17:16;;;;;;;;;1.00;1.00;;;;;8.63;58.18;101049.63;2100330;27;45832;-69
2022/01/08 04:18:17;;;;;;;;;1.50;0.00;;;;;8.62;58.07;101045.22;2104994;27;46581;-68
2022/01/08 04:19:19;;;;;;;;;1.00;1.00;;;;;8.61;57.97;101038.16;2104242;27;47453;-68
2022/01/08 04:20:21;;;;;;;;;1.00;1.00;;;;;8.61;58.20;101038.16;2095887;28;45914;-69
2022/01/08 04:22:35;;;;;;;;;0.00;0.00;;;;;8.62;58.13;101034.63;2102662;27;47772;-69
2022/01/08 04:23:36;;;;;;;;;1.00;0.75;;;;;8.62;58.25;101029.34;2096953;27;47955;-69
2022/01/08 04:24:37;;;;;;;;;0.00;0.00;;;;;8.62;58.24;101033.75;2103997;27;46656;-69
2022/01/08 04:25:37;;;;;;;;;0.00;0.00;;;;;8.61;58.23;101024.94;2104931;27;47379;-68
2022/01/08 04:26:38;;;;;;;;;0.00;0.00;;;;;8.61;58.23;101022.31;2095546;27;47590;-68
2022/01/08 04:27:38;;;;;;;;;1.00;1.00;;;;;8.62;58.29;101025.81;2095044;27;47639;-69
2022/01/08 04:28:39;;;;;;;;;0.33;0.33;;;;;8.62;58.10;101031.13;2104573;27;47119;-69
2022/01/08 04:29:39;;;;;;;;;0.00;0.00;;;;;8.63;58.20;101027.56;2104590;27;47594;-69
2022/01/08 04:30:40;;;;;;;;;1.00;1.00;;;;;8.61;58.12;101022.31;2104901;27;45486;-70
2022/01/08 04:31:40;;;;;;;;;0.33;0.33;;;;;8.63;58.15;101030.22;2095330;27;48055;-69
2022/01/08 04:32:41;;;;;;;;;1.00;1.00;;;;;8.62;58.04;101029.34;2095424;28;46749;-68
2022/01/08 04:33:41;;;;;;;;;0.00;0.00;;;;;8.63;58.55;101027.56;2099356;27;48831;-69
2022/01/08 04:34:42;;;;;;;;;1.00;1.00;;;;;8.63;58.37;101020.50;2104773;27;45358;-69
2022/01/08 04:35:42;;;;;;;;;2.00;2.00;;;;;8.65;58.29;101020.53;2104681;27;45731;-69
2022/01/08 04:36:43;;;;;;;;;1.33;1.33;;;;;8.66;58.40;101022.28;2104292;27;47309;-69
2022/01/08 04:37:43;;;;;;;;;1.00;1.00;;;;;8.67;58.37;101024.03;2098977;27;47288;-68
2022/01/08 04:38:44;;;;;;;;;1.00;1.00;;;;;8.67;58.49;101022.25;2105165;27;48181;-68
2022/01/08 04:39:44;;;;;;;;;0.00;0.00;;;;;8.68;58.23;101026.66;2095526;28;48010;-68
2022/01/08 04:40:44;;;;;;;;;1.00;1.00;;;;;8.68;58.60;101023.13;2095782;28;48767;-68
2022/01/08 04:41:45;;;;;;;;;0.00;0.00;;;;;8.68;58.24;101021.38;2103996;27;48023;-68
2022/01/08 04:42:46;;;;;;;;;3.00;2.00;;;;;8.67;58.48;101022.25;2099395;27;47578;-68
2022/01/08 04:43:46;;;;;;;;;2.00;2.00;;;;;8.67;58.29;101022.25;2104747;27;45701;-68
2022/01/08 04:44:47;;;;;;;;;1.67;1.67;;;;;8.68;58.10;101025.78;2095667;27;45829;-69
2022/01/08 04:45:49;;;;;;;;;1.75;1.75;;;;;8.68;58.46;101017.84;2095531;27;46568;-69
2022/01/08 04:46:50;;;;;;;;;0.50;0.50;;;;;8.69;58.50;101022.25;2103436;27;46005;-68
2022/01/08 04:47:50;;;;;;;;;1.67;1.67;;;;;8.69;58.47;101022.25;2099707;27;47929;-68
2022/01/08 04:48:51;;;;;;;;;1.00;1.00;;;;;8.69;58.47;101019.59;2104141;27;45769;-68
2022/01/08 04:49:51;;;;;;;;;2.00;1.00;;;;;8.68;58.40;101013.44;2104068;27;47657;-69
2022/01/08 04:50:51;;;;;;;;;1.00;1.00;;;;;8.68;58.46;101018.72;2096069;28;45813;-69
2022/01/08 04:51:53;;;;;;;;;0.00;0.00;;;;;8.68;58.32;101021.38;2094630;27;47701;-68
2022/01/08 04:52:55;;;;;;;;;0.00;0.00;;;;;8.68;58.57;101017.84;2102726;27;47713;-68
2022/01/08 04:53:56;;;;;;;;;0.75;0.75;;;;;8.68;58.37;101020.50;2103259;27;48842;-68
2022/01/08 04:54:56;;;;;;;;;1.00;1.00;;;;;8.68;58.65;101028.44;2101897;27;48089;-69
2022/01/08 04:55:57;;;;;;;;;2.67;2.67;;;;;8.68;58.58;101045.19;2104826;27;48296;-69
2022/01/08 04:56:57;;;;;;;;;0.67;0.67;;;;;8.68;58.50;101041.66;2103289;27;48553;-69
2022/01/08 04:57:58;;;;;;;;;0.67;0.67;;;;;8.68;58.65;101055.75;2092247;28;48597;-68
2022/01/08 04:58:58;;;;;;;;;1.00;1.00;;;;;8.66;58.65;101052.25;2095678;28;45754;-68
2022/01/08 04:59:59;;;;;;;;;0.67;0.00;;;;;8.66;58.51;101051.38;2104186;27;45712;-68
2022/01/08 05:00:59;;;;;;;;;0.00;0.00;;;;;8.66;58.76;101059.31;2095682;28;48240;-69
2022/01/08 05:02:00;;;;;;;;;1.67;1.67;;;;;8.65;58.80;101058.44;2095039;27;45751;-68
2022/01/08 05:03:00;;;;;;;;;1.00;1.00;;;;;8.65;58.68;101061.09;2102853;27;46727;-68
2022/01/08 05:04:01;;;;;;;;;1.00;1.00;;;;;8.67;58.71;101061.06;2103020;27;47926;-68
2022/01/08 05:05:02;;;;;;;;;1.00;0.00;;;;;8.66;58.77;101049.63;2095485;28;47477;-67
2022/01/08 05:06:03;;;;;;;;;0.33;0.00;;;;;8.65;58.82;101054.91;2087375;28;48385;-70
2022/01/08 05:07:03;;;;;;;;;3.00;1.00;;;;;8.64;58.88;101051.41;2093517;27;48088;-70
2022/01/08 05:08:04;;;;;;;;;0.00;0.00;;;;;8.64;58.82;101059.34;2104526;27;48033;-69
2022/01/08 05:09:05;;;;;;;;;0.67;0.67;;;;;8.63;58.98;101056.66;2104538;27;47971;-68
2022/01/08 05:10:06;;;;;;;;;0.00;0.00;;;;;8.63;58.93;101060.19;2105089;27;47138;-69
2022/01/08 05:11:07;;;;;;;;;0.75;0.75;;;;;8.63;58.93;101062.84;2095600;28;48134;-69
2022/01/08 05:12:08;;;;;;;;;1.00;1.00;;;;;8.63;59.04;101059.31;2095313;27;47297;-69
2022/01/08 05:13:08;;;;;;;;;0.67;0.67;;;;;8.65;58.86;101052.28;2100672;27;47338;-69
2022/01/08 05:14:10;;;;;;;;;0.00;0.00;;;;;8.64;59.06;101056.69;2100824;27;46483;-68
2022/01/08 05:15:11;;;;;;;;;0.00;0.00;;;;;8.65;59.02;101055.78;2104570;27;47895;-68